My Meet Scores
Sahib Kaur, The Gymnastics Shop - MyMeetScores.com
Top100 | Top Teams | Upcoming Meets | Completed Meets | Latest | Add Scores | Help| Support | Bookmark and Share

Sahib Kaur, The Gymnastics Shop
Personal Bests
LevelVault BarsBeamFloorAA
38.8508.300 8.7258.82534.050
48.8509.075 9.2008.95034.900
58.5008.125 8.7008.35033.025
Meet Scores
Date Meet Team Session Level Division Vault Bars Beam Floor AA
2019-02-23 Kinetic Classic 2019 The Gymnastics Shop 1 5 Older 7.750 19 7.650 20 8.650 11 7.300 19 31.350 19
2019-02-08 IGI Chicago Style 2019 The Gymnastics Shop 48 5 632 LaSalle L5 D 8.300 16 6.750 18 7.400 18 8.100 15 30.550 16
2019-01-18 2019 Bravo Classic The Gymnastics Shop 2A 5 Sr 7.600 27 7.300 27 8.700 19 8.350 26 31.950 27
2019-01-11 St Jude Benefit Meet The Gymnastics Shop 9A 5 Sr B 8.500 17 8.125 12 8.500 7T 7.900 17 33.025 16
2018-12-07 St. Nick Invite 2018 The Gymnastics Shop 1 5 SrB 8.000 21 6.550 19 8.475 11 8.300 15 31.325 17
2018-11-30 Ultimate Wish Classic The Gymnastics Shop 6 5 SR B 8.000 17T 7.000 15 7.875 11 7.700 16 30.575 16
2018-03-08 Level 4 & 5 State The Gymnastics Shop All 4 Sr F 8.200 26T 8.875 10 8.850 13T 8.925 12T 34.850 17T
2018-02-23 Kinetic Classic The Gymnastics Shop 6 4 Older 8.300 72T 9.000 50T 8.725 46T 8.875 65* 34.900 60T
2018-02-08 Nashville Nights 2018 The Gymnastics Shop B03 4 SrC 7.450 9 8.850 6 8.525 5 8.850 4 33.675 5
2018-01-26 King Arthur Invitational The Gymnastics Shop 2 4 Sr B 8.050 15 8.850 6 8.675 5T 8.475 13T 34.050 11
2018-01-12 Legacy Elite Winter Classic The Gymnastics Shop 3 4 JrB 8.050 14 8.650 9 8.750 7 8.600 9 34.050 9
2017-12-08 St. Nick Invite The Gymnastics Shop 1 4 SrB 7.600 12 9.075 4 9.200 1 8.575 10 34.450 7
2017-12-01 Ultimate Wish Classic The Gymnastics Shop 10 4 Sr B 8.050 15 8.400 8 8.600 4T 8.950 7T 34.000 9T
2017-10-27 M&M's Pixie Dust Invitational The Gymnastics Shop 5 4 13+ yrs. 7.550 6 8.275 6 8.750 4 8.300 6 32.875 6
2017-02-17 Big Classic The Gymnastics Shop B 4 Child D 8.000 50T 8.400 34T 8.100 47 8.275 36T 32.775 46
2017-02-10 IGI Chicago Style Gymnastics Meet The Gymnastics Shop 621L 4 Sr 7.900 18 8.350 15 8.775 12 8.400 13 33.425 14
2017-01-13 Legacy Elite Winter Classic The Gymnastics Shop B4 4 Jr 7.550 11 8.325 7 8.750 7 8.150 12 32.775 9
2016-12-15 2016 Hawaiian Pineapple Sanction The Gymnastics Shop 1A 4 Ages 11+ 8.050 15 7.350 12T 8.450 10 7.750 13T 31.600 14
2016-12-02 Ultimate Wish Classic The Gymnastics Shop 13 4 Sr B 7.850 22 7.400 20 9.025 5T 8.500 17 32.775 21
2016-11-11 2016 Illinois Judges Cup The Gymnastics Shop R6 4 11 and Ove 7.700 16 7.650 15 8.300 13 7.875 15 31.525 15
2015-03-12 2015 Illinois Level 3 State Championship Northbrook Gymnastics Training Center All 3 Senior-B 8.700 31 8.275 28 8.725 23 8.175 30 33.875 30
2015-02-20 Midwest Open 2015 Northbrook Gymnastics Training Center 3A 3 9+ 8.500 23 7.700 22 8.300 18 8.300 23 32.800 21
2015-02-13 IGI Chicago Style Gymnastics Meet Northbrook Gymnastics Training Center 213 3 10 & older 8.700 16 7.725 15 8.450 13 8.350 13 33.225 15
2015-01-09 Legacy Elite Winter Classic 2015 Northbrook Gymnastics Training Center 5B 3 Jr C 8.700 10 7.475 10 8.650 6T 8.825 9 33.650 10
2014-03-07 Illinois Level 3 State Meet Northbrook Gymnastics Training Center 1 3 Jr C 8.850 32 8.300 28 8.475 23 8.275 29 33.900 29
2014-02-13 Buckeye Classic Northbrook Gymnastics Training Center F1N 3 Ch C 7.600 16 7.000 16 8.650 6 8.300 13 31.550 15
2014-02-07 IGI Chicago Style Gymnastics Meet Northbrook Gymnastics Training Center 232 3 9 Yr Olds 8.750 31 8.000 31 8.650 27T 8.650 28T 34.050 30
2013-03-08 Arena Classic 2013 Northbrook Gymnastics Training Center 6 4 8 8.850 15 6.450 18 7.700 17 8.000 18 31.000 18
2013-02-22 Midwest Open 2013 Northbrook Gymnastics Training Center 5A 4 8 8.500 17 8.150 15 8.350 17 7.300 18 32.300 18
2013-02-08 IGI Chicago Style Gymnastics Meet Northbrook Gymnastics Training Center 212 4 8 & Under 6.900 42 7.750 39 8.000 36T 6.925 43 29.575 42
Get your scores on
a t-shirt, pin, or hoodie

www.lazysuits.com